createdAt,value
2018-12-15T00:01:54.067Z,2.90
2018-12-15T00:05:22.716Z,2.70
2018-12-15T00:08:30.492Z,2.80
2018-12-15T00:11:38.004Z,2.70
2018-12-15T00:14:45.864Z,2.70
2018-12-15T00:17:53.496Z,2.80
2018-12-15T00:21:01.536Z,2.90
2018-12-15T00:24:25.076Z,2.90
2018-12-15T00:27:56.429Z,3.00
2018-12-15T00:31:24.941Z,2.80
2018-12-15T00:34:32.398Z,2.80
2018-12-15T00:37:39.896Z,2.70
2018-12-15T00:40:47.537Z,2.70
2018-12-15T00:44:11.183Z,2.70
2018-12-15T00:47:38.675Z,2.90
2018-12-15T00:51:15.664Z,3.10
2018-12-15T00:54:39.460Z,3.10
2018-12-15T00:57:47.325Z,3.00
2018-12-15T01:00:54.880Z,3.00
2018-12-15T01:04:22.080Z,3.10
2018-12-15T01:21:28.576Z,2.80
2018-12-15T01:24:57.253Z,3.00
2018-12-15T01:28:34.778Z,3.00
2018-12-15T01:31:42.364Z,3.00
2018-12-15T01:34:49.820Z,3.00
2018-12-15T01:37:57.353Z,2.90
2018-12-15T01:41:06.300Z,2.90
2018-12-15T01:44:13.868Z,3.00
2018-12-15T01:47:36.442Z,3.10
2018-12-15T01:50:44.040Z,3.00
2018-12-15T01:53:51.516Z,3.00
2018-12-15T01:56:59.039Z,3.10
2018-12-15T02:00:08.907Z,3.00
2018-12-15T02:03:16.896Z,3.10
2018-12-15T02:06:24.698Z,3.10
2018-12-15T02:09:32.281Z,3.10
2018-12-15T02:12:39.769Z,3.20
2018-12-15T02:15:47.292Z,3.10
2018-12-15T02:19:10.267Z,3.20
2018-12-15T02:22:37.407Z,3.00
2018-12-15T02:25:59.856Z,3.10
2018-12-15T02:29:22.690Z,3.00
2018-12-15T02:32:30.313Z,2.90
2018-12-15T02:35:37.777Z,3.00
2018-12-15T02:38:45.813Z,3.10
2018-12-15T02:42:10.416Z,3.00
2018-12-15T02:45:17.989Z,2.90
2018-12-15T02:48:25.503Z,2.80
2018-12-15T02:51:32.990Z,2.80
2018-12-15T02:54:40.514Z,2.90
2018-12-15T02:58:03.260Z,2.80
2018-12-15T03:01:10.838Z,2.80
2018-12-15T03:04:18.360Z,2.60
2018-12-15T03:07:26.047Z,2.70
2018-12-15T03:10:35.286Z,2.90
2018-12-15T03:13:42.784Z,2.80
2018-12-15T03:17:06.464Z,2.70
2018-12-15T03:20:14.493Z,2.70
2018-12-15T03:23:22.373Z,2.70
2018-12-15T03:26:30.977Z,2.80
2018-12-15T03:29:38.541Z,2.90
2018-12-15T03:32:46.097Z,2.90
2018-12-15T03:35:53.581Z,2.70
2018-12-15T03:39:11.541Z,2.70
2018-12-15T03:42:19.004Z,2.70
2018-12-15T03:45:26.637Z,2.70
2018-12-15T03:48:34.535Z,2.90
2018-12-15T03:51:57.384Z,2.70
2018-12-15T03:55:25.992Z,2.70
2018-12-15T03:58:48.544Z,2.80
2018-12-15T04:01:56.552Z,2.80
2018-12-15T04:05:05.104Z,2.80
2018-12-15T04:08:12.659Z,2.70
2018-12-15T04:11:20.348Z,2.60
2018-12-15T04:14:46.700Z,2.70
2018-12-15T04:18:09.459Z,2.70
2018-12-15T04:21:17.144Z,2.90
2018-12-15T04:24:25.065Z,2.90
2018-12-15T04:27:32.657Z,3.00
2018-12-15T04:30:40.883Z,3.00
2018-12-15T04:33:48.378Z,2.90
2018-12-15T04:37:21.253Z,2.90
2018-12-15T04:40:48.428Z,2.90
2018-12-15T04:47:22.772Z,2.70
2018-12-15T04:50:30.375Z,2.80
2018-12-15T04:53:37.858Z,2.70
2018-12-15T04:56:45.373Z,2.80
2018-12-15T04:59:52.964Z,2.70
2018-12-15T05:03:16.088Z,2.70
2018-12-15T05:06:23.576Z,2.50
2018-12-15T05:09:31.245Z,2.70
2018-12-15T05:12:55.423Z,2.80
2018-12-15T05:16:02.948Z,2.90
2018-12-15T05:19:10.965Z,3.00
2018-12-15T05:22:33.780Z,3.00
2018-12-15T05:25:56.509Z,2.90
2018-12-15T05:29:04.336Z,2.70
2018-12-15T05:32:12.143Z,2.70
2018-12-15T05:35:19.635Z,2.60
2018-12-15T05:38:41.245Z,2.60
2018-12-15T05:41:48.829Z,2.50
2018-12-15T05:44:56.338Z,2.50
2018-12-15T05:48:04.372Z,2.60
2018-12-15T05:51:11.968Z,2.60
2018-12-15T05:54:19.851Z,2.70
2018-12-15T05:57:27.476Z,2.80
2018-12-15T06:00:35.495Z,2.90
2018-12-15T06:03:43.264Z,2.80
2018-12-15T06:06:51.048Z,2.70
2018-12-15T06:09:58.776Z,2.60
2018-12-15T06:13:06.635Z,2.50
2018-12-15T06:16:25.469Z,2.50
2018-12-15T06:19:43.586Z,2.60
2018-12-15T06:22:51.109Z,2.50
2018-12-15T06:25:58.608Z,2.40
2018-12-15T06:29:06.137Z,2.60
2018-12-15T06:32:13.695Z,2.50
2018-12-15T06:35:37.632Z,2.60
2018-12-15T06:38:45.384Z,2.60
2018-12-15T06:41:52.906Z,2.50
2018-12-15T06:45:00.557Z,2.40
2018-12-15T06:48:08.172Z,2.40
2018-12-15T06:51:15.757Z,2.60
2018-12-15T06:54:23.267Z,2.70
2018-12-15T06:57:30.767Z,2.80
2018-12-15T07:00:53.144Z,2.60
2018-12-15T07:04:00.871Z,2.70
2018-12-15T07:07:08.396Z,2.60
2018-12-15T07:10:15.952Z,2.60
2018-12-15T07:13:23.504Z,2.70
2018-12-15T07:16:31.088Z,2.70
2018-12-15T07:19:38.718Z,2.80
2018-12-15T07:22:46.208Z,2.80
2018-12-15T07:26:05.859Z,2.80
2018-12-15T07:29:28.827Z,2.70
2018-12-15T07:32:36.423Z,2.70
2018-12-15T07:35:43.844Z,2.70
2018-12-15T07:38:51.440Z,2.70
2018-12-15T07:41:58.926Z,2.70
2018-12-15T07:45:20.701Z,2.70
2018-12-15T07:48:28.263Z,2.70
2018-12-15T07:51:35.943Z,2.90
2018-12-15T07:54:43.552Z,3.00
2018-12-15T07:58:07.123Z,3.00
2018-12-15T08:01:14.676Z,2.90
2018-12-15T08:04:22.237Z,3.00
2018-12-15T08:07:30.148Z,3.10
2018-12-15T08:10:57.688Z,3.00
2018-12-15T08:17:31.136Z,2.70
2018-12-15T08:20:51.981Z,2.60
2018-12-15T08:27:18.648Z,2.50
2018-12-15T08:30:41.318Z,2.50
2018-12-15T08:34:02.005Z,2.70
2018-12-15T08:37:26.473Z,2.70
2018-12-15T08:40:46.052Z,2.70
2018-12-15T08:43:53.532Z,2.80
2018-12-15T08:47:01.058Z,2.80
2018-12-15T08:50:09.354Z,2.70
2018-12-15T08:56:39.546Z,2.60
2018-12-15T09:03:10.752Z,2.70
2018-12-15T09:06:20.407Z,2.60
2018-12-15T09:12:53.771Z,2.70
2018-12-15T09:16:03.540Z,2.90
2018-12-15T09:19:27.590Z,2.90
2018-12-15T09:22:37.909Z,2.90
2018-12-15T09:25:47.592Z,2.80
2018-12-15T09:32:16.352Z,2.80
2018-12-15T09:35:26.742Z,2.90
2018-12-15T09:42:03.965Z,3.00
2018-12-15T09:48:35.349Z,3.10
2018-12-15T09:51:53.849Z,3.30
2018-12-15T09:55:13.684Z,3.40
2018-12-15T09:58:21.230Z,3.40
2018-12-15T10:01:28.807Z,3.30
2018-12-15T10:07:55.715Z,3.10
2018-12-15T10:11:05.097Z,3.20
2018-12-15T10:17:31.048Z,3.50
2018-12-15T10:20:54.543Z,3.50
2018-12-15T10:27:18.602Z,3.40
2018-12-15T10:30:31.169Z,3.30
2018-12-15T10:33:38.640Z,3.30
2018-12-15T10:36:46.124Z,3.40
2018-12-15T10:40:05.438Z,3.50
2018-12-15T10:43:13.744Z,3.50
2018-12-15T10:46:32.128Z,3.40
2018-12-15T10:52:56.281Z,3.10
2018-12-15T10:56:21.112Z,3.10
2018-12-15T10:59:38.625Z,3.00
2018-12-15T11:02:56.672Z,3.20
2018-12-15T11:06:14.808Z,3.30
2018-12-15T11:09:33.175Z,3.30
2018-12-15T11:12:52.227Z,3.30
2018-12-15T11:16:13.532Z,3.30
2018-12-15T11:19:37.253Z,3.30
2018-12-15T11:22:44.813Z,3.40
2018-12-15T11:29:16.920Z,3.40
2018-12-15T11:32:24.439Z,3.50
2018-12-15T11:35:47.634Z,3.40
2018-12-15T11:38:55.827Z,3.50
2018-12-15T11:42:03.319Z,3.60
2018-12-15T11:45:25.636Z,3.60
2018-12-15T11:48:45.013Z,3.50
2018-12-15T11:51:52.510Z,3.60
2018-12-15T11:58:20.185Z,3.60
2018-12-15T12:01:40.696Z,3.60
2018-12-15T12:05:01.004Z,3.60
2018-12-15T12:08:23.424Z,3.60
2018-12-15T12:11:43.208Z,3.60
2018-12-15T12:15:02.060Z,3.50
2018-12-15T12:18:23.323Z,3.40
2018-12-15T12:21:30.848Z,3.40
2018-12-15T12:27:57.398Z,3.50
2018-12-15T12:31:20.195Z,3.50
2018-12-15T12:34:39.836Z,3.20
2018-12-15T12:38:01.188Z,3.20
2018-12-15T12:41:09.051Z,3.20
2018-12-15T12:47:35.685Z,3.10
2018-12-15T12:51:00.393Z,3.10
2018-12-15T12:54:08.308Z,3.20
2018-12-15T12:57:15.841Z,3.30
2018-12-15T13:00:37.568Z,3.20
2018-12-15T13:03:45.017Z,3.20
2018-12-15T13:06:52.484Z,3.20
2018-12-15T13:09:59.991Z,3.10
2018-12-15T13:13:07.452Z,3.10
2018-12-15T13:19:33.336Z,3.10
2018-12-15T13:22:52.722Z,3.00
2018-12-15T13:26:12.560Z,2.80
2018-12-15T13:29:32.488Z,2.80
2018-12-15T13:32:51.468Z,3.00
2018-12-15T13:36:17.864Z,3.00
2018-12-15T13:39:25.682Z,3.00
2018-12-15T13:42:33.222Z,2.90
2018-12-15T13:45:40.720Z,2.90
2018-12-15T13:49:04.611Z,2.90
2018-12-15T13:52:12.552Z,2.80
2018-12-15T13:55:20.125Z,2.90
2018-12-15T13:58:40.955Z,3.00
2018-12-15T14:01:48.741Z,2.90
2018-12-15T14:04:56.317Z,2.90
2018-12-15T14:08:03.852Z,2.80
2018-12-15T14:11:22.679Z,2.70
2018-12-15T14:14:30.519Z,2.80
2018-12-15T14:17:38.016Z,2.80
2018-12-15T14:20:45.579Z,2.90
2018-12-15T14:23:53.123Z,2.70
2018-12-15T14:27:10.982Z,2.70
2018-12-15T14:30:29.960Z,2.70
2018-12-15T14:33:37.808Z,2.70
2018-12-15T14:36:45.341Z,2.70
2018-12-15T14:39:53.396Z,2.60
2018-12-15T14:43:00.892Z,2.70
2018-12-15T14:46:08.687Z,2.60
2018-12-15T14:49:27.808Z,2.60
2018-12-15T14:52:47.464Z,2.60
2018-12-15T14:56:08.872Z,2.60
2018-12-15T14:59:16.424Z,2.70
2018-12-15T15:02:24.599Z,2.80
2018-12-15T15:05:44.060Z,2.60
2018-12-15T15:46:27.146Z,2.60
2018-12-15T15:49:34.696Z,2.60
2018-12-15T15:52:42.167Z,2.80
2018-12-15T15:56:02.440Z,2.70
2018-12-15T15:59:22.084Z,2.60
2018-12-15T16:02:29.567Z,2.60
2018-12-15T16:05:37.050Z,2.60
2018-12-15T16:08:44.591Z,2.60
2018-12-15T16:11:52.060Z,2.60
2018-12-15T16:20:51.172Z,2.70
2018-12-15T16:24:12.342Z,2.40
2018-12-15T16:27:20.372Z,2.60
2018-12-15T16:30:27.999Z,2.50
2018-12-15T16:33:49.522Z,2.40
2018-12-15T16:37:10.347Z,2.40
2018-12-15T16:40:17.880Z,2.30
2018-12-15T16:43:39.360Z,2.30
2018-12-15T16:46:59.220Z,2.40
2018-12-15T16:50:11.501Z,2.40
2018-12-15T16:53:19.049Z,2.40
2018-12-15T16:56:26.521Z,2.40
2018-12-15T16:59:34.183Z,2.40
2018-12-15T17:02:55.976Z,2.30
2018-12-15T17:06:04.404Z,2.30
2018-12-15T17:09:13.435Z,2.40
2018-12-15T17:12:34.421Z,2.40
2018-12-15T17:15:42.262Z,2.40
2018-12-15T17:18:49.735Z,2.30
2018-12-15T17:21:57.647Z,2.30
2018-12-15T17:25:06.696Z,2.20
2018-12-15T17:28:14.127Z,2.20
2018-12-15T17:31:21.607Z,2.20
2018-12-15T17:34:29.175Z,2.30
2018-12-15T17:37:36.639Z,2.40
2018-12-15T17:40:57.577Z,2.30
2018-12-15T17:44:05.180Z,2.10
2018-12-15T17:47:12.784Z,2.20
2018-12-15T17:50:31.348Z,2.10
2018-12-15T17:53:38.811Z,2.20
2018-12-15T17:56:46.328Z,2.30
2018-12-15T17:59:54.269Z,2.30
2018-12-15T18:03:13.228Z,2.30
2018-12-15T18:06:20.715Z,2.20
2018-12-15T18:09:28.271Z,2.30
2018-12-15T18:12:35.788Z,2.20
2018-12-15T18:15:43.355Z,2.20
2018-12-15T18:19:03.843Z,2.30
2018-12-15T18:22:11.426Z,2.30
2018-12-15T18:25:20.236Z,2.40
2018-12-15T18:28:41.476Z,2.40
2018-12-15T18:31:49.022Z,2.50
2018-12-15T18:34:56.531Z,2.30
2018-12-15T18:38:04.054Z,2.30
2018-12-15T18:41:24.324Z,2.30
2018-12-15T18:44:31.903Z,2.40
2018-12-15T18:47:39.432Z,2.40
2018-12-15T18:50:47.024Z,2.40
2018-12-15T18:54:07.355Z,2.40
2018-12-15T18:57:26.508Z,2.20
2018-12-15T19:00:34.165Z,2.30
2018-12-15T19:03:41.892Z,2.40
2018-12-15T19:06:49.395Z,2.40
2018-12-15T19:10:10.591Z,2.50
2018-12-15T19:13:18.109Z,2.50
2018-12-15T19:16:26.230Z,2.50
2018-12-15T19:19:34.247Z,2.50
2018-12-15T19:22:54.216Z,2.50
2018-12-15T19:26:14.438Z,2.50
2018-12-15T19:29:34.488Z,2.50
2018-12-15T19:32:55.273Z,2.40
2018-12-15T19:36:15.628Z,2.50
2018-12-15T19:39:23.288Z,2.50
2018-12-15T19:42:30.755Z,2.60
2018-12-15T19:45:38.392Z,2.50
2018-12-15T19:48:46.001Z,2.60
2018-12-15T19:51:53.491Z,2.70
2018-12-15T19:55:00.971Z,2.50
2018-12-15T19:58:08.640Z,2.40
2018-12-15T20:01:16.292Z,2.50
2018-12-15T20:04:24.527Z,2.50
2018-12-15T20:07:32.104Z,2.50
2018-12-15T20:10:52.101Z,2.60
2018-12-15T20:14:13.916Z,2.60
2018-12-15T20:17:21.428Z,2.60
2018-12-15T20:20:29.009Z,2.70
2018-12-15T20:23:36.524Z,2.70
2018-12-15T20:26:56.030Z,2.60
2018-12-15T20:30:04.425Z,2.60
2018-12-15T20:33:11.896Z,2.60
2018-12-15T20:36:32.044Z,2.50
2018-12-15T20:39:39.782Z,2.50
2018-12-15T20:42:47.239Z,2.50
2018-12-15T20:45:54.789Z,2.50
2018-12-15T20:49:02.447Z,2.50
2018-12-15T20:52:23.620Z,2.50
2018-12-15T20:55:43.695Z,2.30
2018-12-15T20:58:52.040Z,2.30
2018-12-15T21:01:59.534Z,2.30
2018-12-15T21:05:19.727Z,2.30
2018-12-15T21:08:39.947Z,2.30
2018-12-15T21:11:59.909Z,2.40
2018-12-15T21:15:18.923Z,2.40
2018-12-15T21:18:27.011Z,2.50
2018-12-15T21:21:34.491Z,2.40
2018-12-15T21:24:41.980Z,2.50
2018-12-15T21:27:49.438Z,2.50
2018-12-15T21:30:57.075Z,2.60
2018-12-15T21:34:18.487Z,2.60
2018-12-15T21:37:39.277Z,2.60
2018-12-15T21:40:58.967Z,2.60
2018-12-15T21:44:17.647Z,2.40
2018-12-15T21:47:25.167Z,2.40
2018-12-15T21:50:32.755Z,2.40
2018-12-15T21:53:40.236Z,2.30
2018-12-15T21:56:47.719Z,2.30
2018-12-15T22:00:08.640Z,2.30
2018-12-15T22:03:16.140Z,2.20
2018-12-15T22:06:39.247Z,2.10
2018-12-15T22:10:01.765Z,2.10
2018-12-15T22:13:09.295Z,2.00
2018-12-15T22:16:16.859Z,2.10
2018-12-15T22:19:24.444Z,2.00
2018-12-15T22:22:32.398Z,2.00
2018-12-15T22:25:39.973Z,1.90
2018-12-15T22:28:47.688Z,1.80
2018-12-15T22:31:55.135Z,1.90
2018-12-15T22:35:14.456Z,1.90
2018-12-15T22:38:34.565Z,1.90
2018-12-15T22:41:54.312Z,1.70
2018-12-15T22:45:15.423Z,1.60
2018-12-15T22:48:36.556Z,1.60
2018-12-15T22:51:56.820Z,1.60
2018-12-15T22:55:18.363Z,1.50
2018-12-15T22:58:39.171Z,1.50
2018-12-15T23:01:47.109Z,1.50
2018-12-15T23:04:55.433Z,1.50
2018-12-15T23:08:03.415Z,1.50
2018-12-15T23:11:24.789Z,1.40
2018-12-15T23:14:45.125Z,1.50
2018-12-15T23:18:05.720Z,1.50
2018-12-15T23:21:13.331Z,1.40
2018-12-15T23:24:20.812Z,1.50
2018-12-15T23:27:28.299Z,1.40
2018-12-15T23:30:48.258Z,1.30
2018-12-15T23:34:08.412Z,1.20
2018-12-15T23:37:30.978Z,1.20
2018-12-15T23:40:50.444Z,1.40
2018-12-15T23:43:58.033Z,1.40
2018-12-15T23:47:05.890Z,1.30
2018-12-15T23:50:13.579Z,1.10
2018-12-15T23:53:33.484Z,1.10
2018-12-15T23:56:41.335Z,1.20
2018-12-15T23:59:48.931Z,1.20
